createdAt,value
2019-02-27T00:00:59.980Z,102415.38
2019-02-27T00:03:29.211Z,102422.56
2019-02-27T00:05:56.124Z,102432.45
2019-02-27T00:08:22.233Z,102425.13
2019-02-27T00:10:48.437Z,102421.13
2019-02-27T00:13:14.774Z,102418.12
2019-02-27T00:15:41.121Z,102422.52
2019-02-27T00:18:07.503Z,102422.55
2019-02-27T00:20:36.882Z,102426.17
2019-02-27T00:23:02.145Z,102419.98
2019-02-27T00:25:29.585Z,102417.14
2019-02-27T00:27:55.706Z,102415.36
2019-02-27T00:30:22.988Z,102415.73
2019-02-27T00:32:51.310Z,102409.95
2019-02-27T00:35:17.342Z,102409.20
2019-02-27T00:37:43.594Z,102407.12
2019-02-27T00:40:09.999Z,102402.51
2019-02-27T00:42:36.231Z,102405.35
2019-02-27T00:45:07.042Z,102398.66
2019-02-27T00:47:33.134Z,102398.91
2019-02-27T00:49:59.258Z,102395.56
2019-02-27T00:52:25.342Z,102393.51
2019-02-27T00:54:52.545Z,102389.87
2019-02-27T00:57:20.891Z,102390.13
2019-02-27T00:59:46.860Z,102389.89
2019-02-27T01:02:12.908Z,102387.58
2019-02-27T01:04:38.997Z,102386.55
2019-02-27T01:07:05.176Z,102383.73
2019-02-27T01:09:31.399Z,102377.04
2019-02-27T01:11:57.574Z,102382.97
2019-02-27T01:14:23.657Z,102384.50
2019-02-27T01:16:50.162Z,102378.56
2019-02-27T01:19:19.086Z,102368.27
2019-02-27T01:21:45.285Z,102372.64
2019-02-27T01:24:11.392Z,102370.77
2019-02-27T01:26:37.472Z,102361.05
2019-02-27T01:29:04.695Z,102355.66
2019-02-27T01:31:30.907Z,102352.94
2019-02-27T01:33:57.010Z,102351.79
2019-02-27T01:36:24.621Z,102345.01
2019-02-27T01:38:51.157Z,102335.23
2019-02-27T01:41:24.388Z,102333.80
2019-02-27T01:43:48.422Z,102338.70
2019-02-27T01:46:14.528Z,102331.51
2019-02-27T01:48:43.709Z,102325.72
2019-02-27T01:51:08.763Z,102322.22
2019-02-27T01:53:34.871Z,102324.53
2019-02-27T01:56:01.096Z,102325.95
2019-02-27T01:58:27.172Z,102317.36
2019-02-27T02:00:56.060Z,102313.11
2019-02-27T02:03:21.354Z,102316.81
2019-02-27T02:05:47.956Z,102308.34
2019-02-27T02:08:14.634Z,102307.70
2019-02-27T02:10:40.964Z,102307.05
2019-02-27T02:13:15.156Z,102300.42
2019-02-27T02:16:01.542Z,102298.53
2019-02-27T02:18:31.618Z,102295.43
2019-02-27T02:21:19.664Z,102290.31
2019-02-27T02:24:15.540Z,102279.77
2019-02-27T02:27:09.270Z,102276.19
2019-02-27T02:29:59.174Z,102265.90
2019-02-27T02:32:52.037Z,102257.88
2019-02-27T02:35:54.007Z,102259.06
2019-02-27T02:38:40.660Z,102255.62
2019-02-27T02:41:13.427Z,102251.48
2019-02-27T02:43:46.136Z,102244.56
2019-02-27T02:46:19.909Z,102239.42
2019-02-27T02:48:55.675Z,102241.74
2019-02-27T02:51:43.457Z,102247.13
2019-02-27T02:54:19.326Z,102246.88
2019-02-27T02:57:00.735Z,102236.35
2019-02-27T02:59:46.764Z,102236.60
2019-02-27T03:02:23.466Z,102233.14
2019-02-27T03:05:06.871Z,102227.85
2019-02-27T03:07:45.862Z,102222.71
2019-02-27T03:10:25.065Z,102215.78
2019-02-27T03:12:57.885Z,102217.81
2019-02-27T03:15:42.270Z,102214.20
2019-02-27T03:18:26.150Z,102213.85
2019-02-27T03:21:01.934Z,102213.96
2019-02-27T03:23:31.952Z,102205.50
2019-02-27T03:26:04.618Z,102208.08
2019-02-27T03:28:41.680Z,102201.89
2019-02-27T03:31:33.488Z,102204.58
2019-02-27T03:34:48.250Z,102200.61
2019-02-27T03:37:19.715Z,102194.44
2019-02-27T03:40:11.752Z,102191.61
2019-02-27T03:43:10.487Z,102195.72
2019-02-27T03:45:52.468Z,102195.33
2019-02-27T03:48:28.457Z,102195.44
2019-02-27T03:51:07.774Z,102196.73
2019-02-27T03:53:52.784Z,102195.28
2019-02-27T03:56:48.723Z,102199.46
2019-02-27T03:59:27.646Z,102198.98
2019-02-27T04:02:08.975Z,102196.48
2019-02-27T04:05:05.316Z,102187.50
2019-02-27T04:07:32.774Z,102183.36
2019-02-27T04:09:59.044Z,102172.83
2019-02-27T04:12:25.243Z,102173.34
2019-02-27T04:14:51.438Z,102177.12
2019-02-27T04:17:28.292Z,102171.45
2019-02-27T04:19:55.610Z,102173.66
2019-02-27T04:22:21.784Z,102174.31
2019-02-27T04:24:48.127Z,102167.26
2019-02-27T04:27:20.062Z,102166.36
2019-02-27T04:29:42.320Z,102168.41
2019-02-27T04:32:09.557Z,102172.02
2019-02-27T04:34:36.393Z,102168.17
2019-02-27T04:37:02.638Z,102159.69
2019-02-27T04:39:28.702Z,102158.41
2019-02-27T04:41:54.804Z,102158.91
2019-02-27T04:44:20.902Z,102150.21
2019-02-27T04:46:47.098Z,102148.64
2019-02-27T04:49:13.236Z,102152.26
2019-02-27T04:51:39.423Z,102147.89
2019-02-27T04:54:07.278Z,102151.73
2019-02-27T04:56:33.744Z,102152.50
2019-02-27T04:58:59.857Z,102146.59
2019-02-27T05:01:26.069Z,102140.03
2019-02-27T05:03:52.444Z,102134.90
2019-02-27T05:06:18.531Z,102141.27
2019-02-27T05:08:44.715Z,102136.00
2019-02-27T05:11:13.961Z,102137.53
2019-02-27T05:13:39.017Z,102139.73
2019-02-27T05:16:05.235Z,102136.80
2019-02-27T05:18:31.331Z,102129.09
2019-02-27T05:20:57.420Z,102135.52
2019-02-27T05:23:23.608Z,102131.16
2019-02-27T05:25:49.821Z,102127.08
2019-02-27T05:28:16.143Z,102133.25
2019-02-27T05:30:44.824Z,102126.53
2019-02-27T05:33:10.415Z,102138.88
2019-02-27T05:35:36.476Z,102146.70
2019-02-27T05:38:02.703Z,102138.36
2019-02-27T05:40:29.018Z,102143.77
2019-02-27T05:42:55.154Z,102137.55
2019-02-27T05:45:21.493Z,102138.37
2019-02-27T05:47:47.583Z,102132.30
2019-02-27T05:50:13.785Z,102131.67
2019-02-27T05:52:40.070Z,102131.56
2019-02-27T05:55:07.099Z,102126.66
2019-02-27T05:57:33.347Z,102121.92
2019-02-27T06:00:02.358Z,102121.04
2019-02-27T06:02:27.554Z,102121.67
2019-02-27T06:04:56.133Z,102117.81
2019-02-27T06:07:21.923Z,102118.78
2019-02-27T06:09:49.013Z,102127.77
2019-02-27T06:12:15.288Z,102124.46
2019-02-27T06:14:41.381Z,102124.87
2019-02-27T06:17:10.211Z,102119.61
2019-02-27T06:19:35.452Z,102122.98
2019-02-27T06:22:01.759Z,102129.83
2019-02-27T06:24:27.938Z,102132.02
2019-02-27T06:26:54.138Z,102133.69
2019-02-27T06:29:23.296Z,102133.17
2019-02-27T06:31:48.252Z,102125.91
2019-02-27T06:34:14.439Z,102138.77
2019-02-27T06:36:42.864Z,102138.37
2019-02-27T06:39:08.831Z,102134.36
2019-02-27T06:41:34.904Z,102131.61
2019-02-27T06:44:03.804Z,102122.82
2019-02-27T06:46:29.923Z,102122.06
2019-02-27T06:48:56.530Z,102114.09
2019-02-27T06:51:22.770Z,102122.33
2019-02-27T06:53:48.963Z,102123.06
2019-02-27T06:56:15.096Z,102125.71
2019-02-27T06:58:41.149Z,102126.99
2019-02-27T07:01:09.666Z,102122.64
2019-02-27T07:03:35.366Z,102118.70
2019-02-27T07:06:03.343Z,102119.59
2019-02-27T07:08:29.434Z,102111.15
2019-02-27T07:10:58.948Z,102111.17
2019-02-27T07:13:23.753Z,102105.77
2019-02-27T07:15:49.943Z,102102.05
2019-02-27T07:18:16.035Z,102101.67
2019-02-27T07:20:42.228Z,102100.57
2019-02-27T07:23:08.402Z,102100.31
2019-02-27T07:25:34.728Z,102099.28
2019-02-27T07:28:01.008Z,102095.77
2019-02-27T07:30:28.495Z,102098.77
2019-02-27T07:32:54.853Z,102096.66
2019-02-27T07:35:25.399Z,102098.31
2019-02-27T07:37:49.216Z,102094.91
2019-02-27T07:40:16.765Z,102091.77
2019-02-27T07:42:42.872Z,102096.34
2019-02-27T07:45:16.871Z,102092.36
2019-02-27T07:47:43.067Z,102086.22
2019-02-27T07:50:11.961Z,102087.45
2019-02-27T07:52:38.035Z,102088.24
2019-02-27T07:55:21.080Z,102086.31
2019-02-27T07:57:36.547Z,102093.16
2019-02-27T08:00:14.752Z,102087.83
2019-02-27T08:02:39.857Z,102091.67
2019-02-27T08:05:07.850Z,102092.28
2019-02-27T08:07:33.940Z,102083.84
2019-02-27T08:10:03.595Z,102084.94
2019-02-27T08:12:28.498Z,102085.34
2019-02-27T08:14:54.609Z,102085.92
2019-02-27T08:17:20.821Z,102083.41
2019-02-27T08:19:47.020Z,102079.41
2019-02-27T08:22:13.144Z,102082.83
2019-02-27T08:24:39.353Z,102083.69
2019-02-27T08:27:07.159Z,102081.66
2019-02-27T08:29:33.646Z,102083.66
2019-02-27T08:32:01.277Z,102076.98
2019-02-27T08:34:27.961Z,102081.41
2019-02-27T08:36:54.033Z,102078.16
2019-02-27T08:39:20.185Z,102075.73
2019-02-27T08:41:46.324Z,102069.77
2019-02-27T08:44:13.299Z,102063.43
2019-02-27T08:46:39.694Z,102059.83
2019-02-27T08:49:05.869Z,102058.60
2019-02-27T08:51:32.088Z,102055.87
2019-02-27T08:53:59.361Z,102056.45
2019-02-27T08:56:26.120Z,102047.39
2019-02-27T08:58:52.299Z,102041.16
2019-02-27T09:01:21.665Z,102033.21
2019-02-27T09:03:47.798Z,102026.25
2019-02-27T09:06:16.801Z,102022.19
2019-02-27T09:08:44.027Z,102019.11
2019-02-27T09:11:10.262Z,102018.59
2019-02-27T09:13:36.797Z,102018.04
2019-02-27T09:16:03.154Z,102018.04
2019-02-27T09:18:29.398Z,102008.40
2019-02-27T09:20:55.585Z,102004.97
2019-02-27T09:23:21.763Z,102008.86
2019-02-27T09:25:48.953Z,102003.23
2019-02-27T09:28:16.001Z,102003.90
2019-02-27T09:30:42.296Z,102004.90
2019-02-27T09:33:08.526Z,101990.25
2019-02-27T09:35:38.500Z,101986.56
2019-02-27T09:38:02.800Z,101978.81
2019-02-27T09:40:29.820Z,101979.08
2019-02-27T09:42:56.546Z,101978.49
2019-02-27T09:45:25.056Z,101972.90
2019-02-27T09:47:51.356Z,101969.29
2019-02-27T09:50:41.362Z,101972.73
2019-02-27T09:53:07.808Z,101974.89
2019-02-27T09:55:34.422Z,101971.98
2019-02-27T09:58:00.938Z,101974.59
2019-02-27T10:00:33.329Z,101972.95
2019-02-27T10:03:00.244Z,101979.06
2019-02-27T10:05:26.418Z,101972.39
2019-02-27T10:07:52.646Z,101966.20
2019-02-27T10:10:18.725Z,101956.12
2019-02-27T10:12:44.837Z,101951.31
2019-02-27T10:15:11.048Z,101949.18
2019-02-27T10:17:37.136Z,101952.29
2019-02-27T10:20:08.473Z,101955.14
2019-02-27T10:22:34.694Z,101956.05
2019-02-27T10:25:00.875Z,101957.85
2019-02-27T10:27:28.709Z,101958.10
2019-02-27T10:29:55.178Z,101947.73
2019-02-27T10:32:21.353Z,101950.27
2019-02-27T10:34:47.457Z,101945.12
2019-02-27T10:37:17.152Z,101940.10
2019-02-27T10:39:41.539Z,101929.46
2019-02-27T10:42:07.765Z,101936.61
2019-02-27T10:44:34.500Z,101940.52
2019-02-27T10:47:00.848Z,101939.00
2019-02-27T10:49:28.048Z,101934.66
2019-02-27T10:51:54.266Z,101937.88
2019-02-27T10:54:20.504Z,101930.53
2019-02-27T10:56:46.607Z,101923.06
2019-02-27T10:59:12.691Z,101922.67
2019-02-27T11:01:38.769Z,101917.80
2019-02-27T11:04:04.980Z,101913.86
2019-02-27T11:06:34.078Z,101909.02
2019-02-27T11:08:59.229Z,101905.75
2019-02-27T11:11:25.521Z,101902.02
2019-02-27T11:13:55.226Z,101898.92
2019-02-27T11:16:21.277Z,101899.56
2019-02-27T11:18:48.070Z,101893.17
2019-02-27T11:21:14.414Z,101889.05
2019-02-27T11:23:41.717Z,101887.30
2019-02-27T11:26:08.031Z,101886.06
2019-02-27T11:28:34.548Z,101871.33
2019-02-27T11:31:01.092Z,101870.05
2019-02-27T11:33:27.169Z,101852.62
2019-02-27T11:35:53.273Z,101852.70
2019-02-27T11:38:24.354Z,101837.20
2019-02-27T11:40:47.603Z,101839.18
2019-02-27T11:43:13.757Z,101831.50
2019-02-27T11:45:39.969Z,101829.19
2019-02-27T11:48:07.167Z,101829.63
2019-02-27T11:50:33.587Z,101826.92
2019-02-27T11:53:02.805Z,101816.83
2019-02-27T11:55:27.976Z,101816.80
2019-02-27T11:57:54.183Z,101809.71
2019-02-27T12:00:23.417Z,101802.75
2019-02-27T12:02:49.863Z,101800.23
2019-02-27T12:05:16.268Z,101792.20
2019-02-27T12:07:42.680Z,101787.18
2019-02-27T12:10:12.479Z,101789.56
2019-02-27T12:12:38.727Z,101787.36
2019-02-27T12:15:09.098Z,101782.72
2019-02-27T12:17:36.068Z,101774.64
2019-02-27T12:20:03.981Z,101765.94
2019-02-27T12:22:32.949Z,101766.91
2019-02-27T12:25:00.450Z,101758.51
2019-02-27T12:27:47.797Z,101753.75
2019-02-27T12:29:54.930Z,101752.69
2019-02-27T12:32:21.965Z,101749.30
2019-02-27T12:34:48.723Z,101745.83
2019-02-27T12:37:26.836Z,101736.37
2019-02-27T12:39:43.579Z,101724.89
2019-02-27T12:42:10.113Z,101723.50
2019-02-27T12:44:36.359Z,101719.58
2019-02-27T12:47:05.498Z,101711.45
2019-02-27T12:49:30.895Z,101704.04
2019-02-27T12:51:57.042Z,101698.92
2019-02-27T12:54:23.163Z,101694.97
2019-02-27T12:56:49.487Z,101694.98
2019-02-27T12:59:15.809Z,101688.65
2019-02-27T13:01:42.023Z,101686.53
2019-02-27T13:04:08.380Z,101681.70
2019-02-27T13:06:37.249Z,101679.50
2019-02-27T13:09:04.756Z,101679.03
2019-02-27T13:11:32.867Z,101683.52
2019-02-27T13:13:59.662Z,101676.31
2019-02-27T13:16:26.829Z,101675.24
2019-02-27T13:18:53.058Z,101673.25
2019-02-27T13:21:20.686Z,101666.81
2019-02-27T13:23:47.438Z,101660.62
2019-02-27T13:26:13.563Z,101656.55
2019-02-27T13:28:39.808Z,101652.58
2019-02-27T13:31:06.135Z,101648.62
2019-02-27T13:33:32.949Z,101645.81
2019-02-27T13:36:01.583Z,101643.34
2019-02-27T13:38:28.796Z,101635.35
2019-02-27T13:40:55.097Z,101626.32
2019-02-27T13:43:21.409Z,101624.20
2019-02-27T13:45:48.233Z,101618.14
2019-02-27T13:48:14.669Z,101617.30
2019-02-27T13:50:41.113Z,101615.53
2019-02-27T13:53:07.453Z,101609.13
2019-02-27T13:55:33.909Z,101601.98
2019-02-27T13:58:03.663Z,101597.98
2019-02-27T14:00:30.704Z,101588.50
2019-02-27T14:02:57.049Z,101589.76
2019-02-27T14:05:23.440Z,101582.67
2019-02-27T14:07:49.654Z,101588.19
2019-02-27T14:10:20.489Z,101582.88
2019-02-27T14:12:45.791Z,101582.45
2019-02-27T14:15:17.824Z,101572.23
2019-02-27T14:17:44.124Z,101574.50
2019-02-27T14:20:13.781Z,101562.94
2019-02-27T14:22:41.155Z,101570.45
2019-02-27T14:25:13.650Z,101561.25
2019-02-27T14:27:40.168Z,101560.86
2019-02-27T14:30:16.129Z,101552.37
2019-02-27T14:32:44.988Z,101551.38
2019-02-27T14:35:10.759Z,101554.05
2019-02-27T14:37:37.144Z,101548.91
2019-02-27T14:40:10.116Z,101548.00
2019-02-27T14:42:36.441Z,101543.22
2019-02-27T14:45:06.530Z,101540.97
2019-02-27T14:47:32.697Z,101538.23
2019-02-27T14:50:00.144Z,101539.23
2019-02-27T14:52:27.879Z,101531.02
2019-02-27T14:54:53.990Z,101532.45
2019-02-27T14:57:20.324Z,101524.58
2019-02-27T14:59:46.428Z,101520.78
2019-02-27T15:02:12.779Z,101520.31
2019-02-27T15:04:39.114Z,101519.45
2019-02-27T15:07:05.425Z,101511.69
2019-02-27T15:09:36.080Z,101517.28
2019-02-27T15:11:59.767Z,101504.00
2019-02-27T15:14:25.980Z,101508.58
2019-02-27T15:16:52.302Z,101508.36
2019-02-27T15:19:18.972Z,101495.81
2019-02-27T15:21:46.530Z,101497.53
2019-02-27T15:24:13.483Z,101493.06
2019-02-27T15:26:45.248Z,101494.03
2019-02-27T15:29:07.804Z,101488.00
2019-02-27T15:31:34.053Z,101487.92
2019-02-27T15:34:00.368Z,101478.34
2019-02-27T15:36:29.502Z,101483.23
2019-02-27T15:38:54.939Z,101478.34
2019-02-27T15:41:21.287Z,101470.80
2019-02-27T15:43:57.390Z,101470.33
2019-02-27T15:46:15.848Z,101464.64
2019-02-27T15:48:42.058Z,101463.27
2019-02-27T15:51:08.353Z,101456.91
2019-02-27T15:53:34.565Z,101451.02
2019-02-27T15:56:00.927Z,101444.91
2019-02-27T15:58:28.051Z,101441.44
2019-02-27T16:00:55.042Z,101437.23
2019-02-27T16:03:22.889Z,101435.03
2019-02-27T16:05:49.561Z,101431.39
2019-02-27T16:08:15.739Z,101436.39
2019-02-27T16:10:43.821Z,101427.63
2019-02-27T16:13:10.219Z,101421.39
2019-02-27T16:15:36.447Z,101419.09
2019-02-27T16:18:04.614Z,101423.69
2019-02-27T16:20:31.030Z,101413.80
2019-02-27T16:22:57.224Z,101408.30
2019-02-27T16:25:25.944Z,101404.97
2019-02-27T16:27:52.298Z,101400.13
2019-02-27T16:30:21.546Z,101399.30
2019-02-27T16:32:49.478Z,101395.05
2019-02-27T16:35:17.354Z,101387.94
2019-02-27T16:37:43.695Z,101384.70
2019-02-27T16:40:18.652Z,101383.66
2019-02-27T16:42:45.408Z,101390.11
2019-02-27T16:45:20.435Z,101386.98
2019-02-27T16:47:46.728Z,101384.70
2019-02-27T16:50:15.427Z,101379.84
2019-02-27T16:52:42.240Z,101379.42
2019-02-27T16:55:13.319Z,101382.86
2019-02-27T16:57:39.625Z,101376.70
2019-02-27T17:00:09.543Z,101373.16
2019-02-27T17:02:38.260Z,101373.69
2019-02-27T17:05:10.498Z,101370.91
2019-02-27T17:07:36.738Z,101372.41
2019-02-27T17:10:10.980Z,101370.52
2019-02-27T17:12:38.223Z,101366.70
2019-02-27T17:15:11.172Z,101364.78
2019-02-27T17:17:37.282Z,101363.84
2019-02-27T17:20:12.698Z,101358.19
2019-02-27T17:22:36.914Z,101353.20
2019-02-27T17:25:09.799Z,101350.95
2019-02-27T17:27:36.091Z,101346.52
2019-02-27T17:30:17.624Z,101347.45
2019-02-27T17:32:43.980Z,101336.17
2019-02-27T17:35:10.303Z,101328.66
2019-02-27T17:37:37.393Z,101329.57
2019-02-27T17:40:09.024Z,101329.84
2019-02-27T17:42:35.254Z,101326.30
2019-02-27T17:45:04.154Z,101319.09
2019-02-27T17:47:32.084Z,101321.72
2019-02-27T17:49:58.325Z,101318.11
2019-02-27T17:52:24.524Z,101320.92
2019-02-27T17:54:50.642Z,101312.78
2019-02-27T17:57:16.901Z,101303.63
2019-02-27T17:59:43.100Z,101302.69
2019-02-27T18:02:09.450Z,101301.95
2019-02-27T18:04:35.825Z,101296.09
2019-02-27T18:07:09.192Z,101296.05
2019-02-27T18:09:34.524Z,101298.67
2019-02-27T18:12:04.504Z,101285.85
2019-02-27T18:14:30.632Z,101286.69
2019-02-27T18:16:59.208Z,101279.27
2019-02-27T18:19:24.867Z,101273.43
2019-02-27T18:21:50.969Z,101272.55
2019-02-27T18:24:20.102Z,101271.91
2019-02-27T18:26:50.079Z,101268.78
2019-02-27T18:29:14.681Z,101265.39
2019-02-27T18:31:41.027Z,101262.25
2019-02-27T18:34:07.228Z,101257.02
2019-02-27T18:36:42.611Z,101250.72
2019-02-27T18:39:06.959Z,101250.75
2019-02-27T18:41:33.783Z,101244.76
2019-02-27T18:44:01.229Z,101242.12
2019-02-27T18:46:30.036Z,101237.70
2019-02-27T18:48:56.362Z,101229.87
2019-02-27T18:51:22.665Z,101229.14
2019-02-27T18:53:49.006Z,101231.47
2019-02-27T18:56:15.414Z,101223.63
2019-02-27T18:58:41.809Z,101214.10
2019-02-27T19:01:09.862Z,101217.45
2019-02-27T19:03:36.877Z,101218.66
2019-02-27T19:06:11.993Z,101220.83
2019-02-27T19:08:41.350Z,101213.45
2019-02-27T19:11:07.810Z,101212.73
2019-02-27T19:13:35.142Z,101210.63
2019-02-27T19:16:06.537Z,101202.29
2019-02-27T19:18:41.134Z,101202.29
2019-02-27T19:21:08.321Z,101195.19
2019-02-27T19:23:34.731Z,101194.25
2019-02-27T19:26:06.368Z,101193.20
2019-02-27T19:28:33.818Z,101186.53
2019-02-27T19:30:59.952Z,101186.69
2019-02-27T19:33:32.619Z,101188.48
2019-02-27T19:38:32.597Z,101182.24
2019-02-27T19:41:01.326Z,101180.80
2019-02-27T19:43:31.866Z,101178.93
2019-02-27T19:48:32.064Z,101171.72
2019-02-27T19:50:58.362Z,101170.80
2019-02-27T19:53:24.738Z,101172.29
2019-02-27T19:58:23.242Z,101176.53
2019-02-27T20:00:52.293Z,101176.83
2019-02-27T20:03:18.702Z,101178.72
2019-02-27T20:05:45.480Z,101173.54
2019-02-27T20:08:11.851Z,101178.85
2019-02-27T20:10:41.360Z,101172.86
2019-02-27T20:13:08.079Z,101178.20
2019-02-27T20:15:34.510Z,101167.20
2019-02-27T20:18:08.244Z,101181.66
2019-02-27T20:20:40.029Z,101170.02
2019-02-27T20:23:08.903Z,101172.34
2019-02-27T20:25:47.385Z,101170.88
2019-02-27T20:28:13.600Z,101160.31
2019-02-27T20:30:40.422Z,101165.44
2019-02-27T20:33:06.771Z,101160.13
2019-02-27T20:35:39.105Z,101161.81
2019-02-27T20:38:07.908Z,101154.98
2019-02-27T20:40:35.236Z,101163.91
2019-02-27T20:43:10.104Z,101156.47
2019-02-27T20:45:36.340Z,101151.17
2019-02-27T20:48:08.618Z,101152.17
2019-02-27T20:50:45.704Z,101147.00
2019-02-27T20:53:13.197Z,101146.69
2019-02-27T20:55:39.986Z,101140.86
2019-02-27T20:58:17.930Z,101144.46
2019-02-27T21:00:44.345Z,101138.55
2019-02-27T21:03:10.733Z,101137.09
2019-02-27T21:05:40.947Z,101135.42
2019-02-27T21:08:06.827Z,101126.27
2019-02-27T21:10:33.693Z,101129.11
2019-02-27T21:13:00.017Z,101123.95
2019-02-27T21:15:33.466Z,101122.47
2019-02-27T21:17:59.979Z,101120.02
2019-02-27T21:20:26.337Z,101114.70
2019-02-27T21:22:55.044Z,101113.20
2019-02-27T21:25:21.157Z,101109.87
2019-02-27T21:27:47.470Z,101108.42
2019-02-27T21:30:18.892Z,101109.02
2019-02-27T21:32:44.166Z,101102.91
2019-02-27T21:35:10.477Z,101098.02
2019-02-27T21:37:37.338Z,101105.10
2019-02-27T21:40:09.212Z,101099.16
2019-02-27T21:42:35.544Z,101092.88
2019-02-27T21:45:03.650Z,101090.48
2019-02-27T21:47:31.029Z,101084.97
2019-02-27T21:49:57.121Z,101084.33
2019-02-27T21:52:23.448Z,101076.42
2019-02-27T21:54:49.806Z,101082.20
2019-02-27T21:57:15.989Z,101077.91
2019-02-27T21:59:42.388Z,101081.00
2019-02-27T22:02:09.000Z,101084.09
2019-02-27T22:04:35.308Z,101081.31
2019-02-27T22:07:01.599Z,101078.97
2019-02-27T22:09:27.783Z,101075.64
2019-02-27T22:11:53.996Z,101065.34
2019-02-27T22:14:20.397Z,101073.03
2019-02-27T22:16:46.503Z,101078.41
2019-02-27T22:19:12.824Z,101073.41
2019-02-27T22:21:38.953Z,101066.54
2019-02-27T22:24:05.279Z,101067.19
2019-02-27T22:26:37.079Z,101069.12
2019-02-27T22:29:00.014Z,101067.42
2019-02-27T22:31:26.275Z,101069.35
2019-02-27T22:33:53.137Z,101067.33
2019-02-27T22:36:20.456Z,101071.02
2019-02-27T22:38:46.654Z,101070.73
2019-02-27T22:41:13.846Z,101069.56
2019-02-27T22:43:40.103Z,101068.98
2019-02-27T22:46:06.284Z,101067.86
2019-02-27T22:48:32.519Z,101062.88
2019-02-27T22:50:58.863Z,101064.73
2019-02-27T22:53:26.238Z,101067.86
2019-02-27T22:55:53.352Z,101064.01
2019-02-27T22:58:19.852Z,101056.19
2019-02-27T23:00:56.349Z,101059.91
2019-02-27T23:03:36.917Z,101061.50
2019-02-27T23:06:04.007Z,101055.09
2019-02-27T23:08:30.361Z,101052.41
2019-02-27T23:10:56.633Z,101052.77
2019-02-27T23:13:22.895Z,101055.13
2019-02-27T23:15:49.288Z,101046.59
2019-02-27T23:18:15.487Z,101043.17
2019-02-27T23:20:41.585Z,101040.91
2019-02-27T23:23:07.922Z,101039.61
2019-02-27T23:25:34.056Z,101042.05
2019-02-27T23:28:01.026Z,101037.03
2019-02-27T23:30:28.403Z,101034.14
2019-02-27T23:32:54.734Z,101034.84
2019-02-27T23:35:21.146Z,101047.03
2019-02-27T23:37:47.266Z,101035.61
2019-02-27T23:40:16.913Z,101035.67
2019-02-27T23:42:41.633Z,101029.37
2019-02-27T23:45:10.311Z,101021.61
2019-02-27T23:47:37.729Z,101026.42
2019-02-27T23:50:10.819Z,101027.36
2019-02-27T23:52:35.796Z,101017.84
2019-02-27T23:55:02.281Z,101019.81
2019-02-27T23:57:28.682Z,101009.84
2019-02-27T23:59:54.880Z,101012.94
